sensor_id;sensor_type;location;lat;lon;timestamp;P1;durP1;ratioP1;P2;durP2;ratioP2
70800;SDS011;59616;52.170;5.386;2023-04-06T00:00:34;19.50;;;8.32;;
70800;SDS011;59616;52.170;5.386;2023-04-06T00:03:01;23.55;;;9.00;;
70800;SDS011;59616;52.170;5.386;2023-04-06T00:05:28;18.67;;;8.23;;
70800;SDS011;59616;52.170;5.386;2023-04-06T00:07:57;26.15;;;9.00;;
70800;SDS011;59616;52.170;5.386;2023-04-06T00:10:24;21.52;;;8.82;;
70800;SDS011;59616;52.170;5.386;2023-04-06T00:12:52;19.90;;;7.95;;
70800;SDS011;59616;52.170;5.386;2023-04-06T00:15:20;19.65;;;8.93;;
70800;SDS011;59616;52.170;5.386;2023-04-06T00:17:47;19.35;;;8.73;;
70800;SDS011;59616;52.170;5.386;2023-04-06T00:20:15;18.17;;;8.07;;
70800;SDS011;59616;52.170;5.386;2023-04-06T00:22:42;21.00;;;8.05;;
70800;SDS011;59616;52.170;5.386;2023-04-06T00:25:09;20.20;;;8.00;;
70800;SDS011;59616;52.170;5.386;2023-04-06T00:27:37;20.38;;;7.80;;
70800;SDS011;59616;52.170;5.386;2023-04-06T00:30:05;20.17;;;8.43;;
70800;SDS011;59616;52.170;5.386;2023-04-06T00:32:32;19.70;;;8.05;;
70800;SDS011;59616;52.170;5.386;2023-04-06T00:34:59;20.88;;;8.23;;
70800;SDS011;59616;52.170;5.386;2023-04-06T00:37:27;24.02;;;8.63;;
70800;SDS011;59616;52.170;5.386;2023-04-06T00:42:21;21.27;;;8.60;;
70800;SDS011;59616;52.170;5.386;2023-04-06T00:44:56;22.08;;;9.27;;
70800;SDS011;59616;52.170;5.386;2023-04-06T00:47:23;17.80;;;8.30;;
70800;SDS011;59616;52.170;5.386;2023-04-06T00:49:53;19.52;;;8.43;;
70800;SDS011;59616;52.170;5.386;2023-04-06T00:52:21;19.90;;;8.45;;
70800;SDS011;59616;52.170;5.386;2023-04-06T00:54:49;21.70;;;9.15;;
70800;SDS011;59616;52.170;5.386;2023-04-06T00:57:18;20.02;;;8.35;;
70800;SDS011;59616;52.170;5.386;2023-04-06T00:59:51;21.55;;;8.27;;
70800;SDS011;59616;52.170;5.386;2023-04-06T01:02:19;20.80;;;8.65;;
70800;SDS011;59616;52.170;5.386;2023-04-06T01:04:50;21.45;;;9.00;;
70800;SDS011;59616;52.170;5.386;2023-04-06T01:07:24;26.25;;;8.70;;
70800;SDS011;59616;52.170;5.386;2023-04-06T01:12:32;21.92;;;8.95;;
70800;SDS011;59616;52.170;5.386;2023-04-06T01:15:03;24.10;;;9.82;;
70800;SDS011;59616;52.170;5.386;2023-04-06T01:17:33;23.58;;;9.00;;
70800;SDS011;59616;52.170;5.386;2023-04-06T01:20:08;21.55;;;8.50;;
70800;SDS011;59616;52.170;5.386;2023-04-06T01:22:36;20.73;;;8.00;;
70800;SDS011;59616;52.170;5.386;2023-04-06T01:25:04;19.80;;;8.35;;
70800;SDS011;59616;52.170;5.386;2023-04-06T01:27:39;18.73;;;7.90;;
70800;SDS011;59616;52.170;5.386;2023-04-06T01:30:22;18.88;;;8.80;;
70800;SDS011;59616;52.170;5.386;2023-04-06T01:32:52;21.45;;;8.70;;
70800;SDS011;59616;52.170;5.386;2023-04-06T01:35:38;22.60;;;8.90;;
70800;SDS011;59616;52.170;5.386;2023-04-06T01:38:12;19.05;;;8.55;;
70800;SDS011;59616;52.170;5.386;2023-04-06T01:40:39;22.58;;;8.60;;
70800;SDS011;59616;52.170;5.386;2023-04-06T01:43:07;19.13;;;8.38;;
70800;SDS011;59616;52.170;5.386;2023-04-06T01:45:45;20.90;;;8.57;;
70800;SDS011;59616;52.170;5.386;2023-04-06T01:48:17;22.35;;;8.65;;
70800;SDS011;59616;52.170;5.386;2023-04-06T01:50:44;20.88;;;7.93;;
70800;SDS011;59616;52.170;5.386;2023-04-06T01:53:16;20.77;;;8.15;;
70800;SDS011;59616;52.170;5.386;2023-04-06T01:55:45;19.92;;;8.02;;
70800;SDS011;59616;52.170;5.386;2023-04-06T01:58:23;19.83;;;7.72;;
70800;SDS011;59616;52.170;5.386;2023-04-06T02:00:50;20.67;;;7.85;;
70800;SDS011;59616;52.170;5.386;2023-04-06T02:03:17;18.48;;;8.13;;
70800;SDS011;59616;52.170;5.386;2023-04-06T02:05:45;19.85;;;7.85;;
70800;SDS011;59616;52.170;5.386;2023-04-06T02:08:22;18.83;;;7.40;;
70800;SDS011;59616;52.170;5.386;2023-04-06T02:10:50;16.73;;;6.93;;
70800;SDS011;59616;52.170;5.386;2023-04-06T02:13:26;18.52;;;7.32;;
70800;SDS011;59616;52.170;5.386;2023-04-06T02:15:54;19.45;;;7.65;;
70800;SDS011;59616;52.170;5.386;2023-04-06T02:18:21;22.23;;;8.30;;
70800;SDS011;59616;52.170;5.386;2023-04-06T02:20:48;17.35;;;7.45;;
70800;SDS011;59616;52.170;5.386;2023-04-06T02:23:16;20.38;;;8.05;;
70800;SDS011;59616;52.170;5.386;2023-04-06T02:25:43;20.83;;;7.75;;
70800;SDS011;59616;52.170;5.386;2023-04-06T02:28:11;19.92;;;7.57;;
70800;SDS011;59616;52.170;5.386;2023-04-06T02:30:38;17.88;;;7.47;;
70800;SDS011;59616;52.170;5.386;2023-04-06T02:33:05;18.98;;;7.22;;
70800;SDS011;59616;52.170;5.386;2023-04-06T02:35:40;19.85;;;7.60;;
70800;SDS011;59616;52.170;5.386;2023-04-06T02:38:07;22.75;;;7.45;;
70800;SDS011;59616;52.170;5.386;2023-04-06T02:40:34;17.20;;;7.10;;
70800;SDS011;59616;52.170;5.386;2023-04-06T02:43:13;17.65;;;7.13;;
70800;SDS011;59616;52.170;5.386;2023-04-06T02:45:41;20.42;;;7.68;;
70800;SDS011;59616;52.170;5.386;2023-04-06T02:48:10;17.65;;;6.75;;
70800;SDS011;59616;52.170;5.386;2023-04-06T02:53:06;18.27;;;7.10;;
70800;SDS011;59616;52.170;5.386;2023-04-06T02:55:35;18.40;;;7.15;;
70800;SDS011;59616;52.170;5.386;2023-04-06T02:58:02;17.23;;;6.85;;
70800;SDS011;59616;52.170;5.386;2023-04-06T03:00:37;18.63;;;6.45;;
70800;SDS011;59616;52.170;5.386;2023-04-06T03:03:04;18.77;;;7.40;;
70800;SDS011;59616;52.170;5.386;2023-04-06T03:05:32;18.13;;;7.57;;
70800;SDS011;59616;52.170;5.386;2023-04-06T03:07:59;17.17;;;6.82;;
70800;SDS011;59616;52.170;5.386;2023-04-06T03:10:35;18.45;;;7.80;;
70800;SDS011;59616;52.170;5.386;2023-04-06T03:13:03;18.55;;;7.32;;
70800;SDS011;59616;52.170;5.386;2023-04-06T03:15:43;18.92;;;6.70;;
70800;SDS011;59616;52.170;5.386;2023-04-06T03:18:14;18.83;;;6.93;;
70800;SDS011;59616;52.170;5.386;2023-04-06T03:20:45;18.52;;;7.07;;
70800;SDS011;59616;52.170;5.386;2023-04-06T03:23:15;19.48;;;6.80;;
70800;SDS011;59616;52.170;5.386;2023-04-06T03:25:44;17.20;;;6.47;;
70800;SDS011;59616;52.170;5.386;2023-04-06T03:28:15;16.40;;;7.63;;
70800;SDS011;59616;52.170;5.386;2023-04-06T03:30:52;16.52;;;6.95;;
70800;SDS011;59616;52.170;5.386;2023-04-06T03:33:39;18.27;;;6.88;;
70800;SDS011;59616;52.170;5.386;2023-04-06T03:36:10;18.13;;;7.28;;
70800;SDS011;59616;52.170;5.386;2023-04-06T03:38:40;18.63;;;7.57;;
70800;SDS011;59616;52.170;5.386;2023-04-06T03:41:12;19.33;;;6.68;;
70800;SDS011;59616;52.170;5.386;2023-04-06T03:43:43;15.85;;;5.93;;
70800;SDS011;59616;52.170;5.386;2023-04-06T03:46:11;15.20;;;6.95;;
70800;SDS011;59616;52.170;5.386;2023-04-06T03:48:38;21.10;;;7.47;;
70800;SDS011;59616;52.170;5.386;2023-04-06T03:51:06;20.40;;;7.43;;
70800;SDS011;59616;52.170;5.386;2023-04-06T03:53:33;16.92;;;6.95;;
70800;SDS011;59616;52.170;5.386;2023-04-06T03:56:00;18.08;;;7.22;;
70800;SDS011;59616;52.170;5.386;2023-04-06T03:58:30;19.23;;;6.88;;
70800;SDS011;59616;52.170;5.386;2023-04-06T04:00:57;19.55;;;7.30;;
70800;SDS011;59616;52.170;5.386;2023-04-06T04:03:24;14.55;;;6.10;;
70800;SDS011;59616;52.170;5.386;2023-04-06T04:05:53;20.17;;;7.55;;
70800;SDS011;59616;52.170;5.386;2023-04-06T04:08:25;15.07;;;6.43;;
70800;SDS011;59616;52.170;5.386;2023-04-06T04:10:52;16.80;;;6.68;;
70800;SDS011;59616;52.170;5.386;2023-04-06T04:13:19;17.25;;;6.50;;
70800;SDS011;59616;52.170;5.386;2023-04-06T04:15:49;14.38;;;6.35;;
70800;SDS011;59616;52.170;5.386;2023-04-06T04:18:16;17.42;;;6.95;;
70800;SDS011;59616;52.170;5.386;2023-04-06T04:20:43;17.17;;;7.25;;
70800;SDS011;59616;52.170;5.386;2023-04-06T04:23:12;13.05;;;6.00;;
70800;SDS011;59616;52.170;5.386;2023-04-06T04:25:39;16.80;;;7.03;;
70800;SDS011;59616;52.170;5.386;2023-04-06T04:28:06;16.25;;;6.68;;
70800;SDS011;59616;52.170;5.386;2023-04-06T04:30:34;16.58;;;7.13;;
70800;SDS011;59616;52.170;5.386;2023-04-06T04:33:07;17.77;;;6.85;;
70800;SDS011;59616;52.170;5.386;2023-04-06T04:35:35;19.65;;;6.43;;
70800;SDS011;59616;52.170;5.386;2023-04-06T04:38:03;20.55;;;7.10;;
70800;SDS011;59616;52.170;5.386;2023-04-06T04:40:31;17.38;;;6.65;;
70800;SDS011;59616;52.170;5.386;2023-04-06T04:43:05;17.70;;;7.15;;
70800;SDS011;59616;52.170;5.386;2023-04-06T04:45:33;18.02;;;7.10;;
70800;SDS011;59616;52.170;5.386;2023-04-06T04:48:11;20.95;;;7.53;;
70800;SDS011;59616;52.170;5.386;2023-04-06T04:50:59;16.95;;;6.90;;
70800;SDS011;59616;52.170;5.386;2023-04-06T04:53:36;18.10;;;7.72;;
70800;SDS011;59616;52.170;5.386;2023-04-06T04:56:14;17.33;;;6.47;;
70800;SDS011;59616;52.170;5.386;2023-04-06T04:58:43;18.40;;;7.45;;
70800;SDS011;59616;52.170;5.386;2023-04-06T05:01:10;17.23;;;6.82;;
70800;SDS011;59616;52.170;5.386;2023-04-06T05:03:39;18.95;;;7.55;;
70800;SDS011;59616;52.170;5.386;2023-04-06T05:06:11;17.67;;;6.82;;
70800;SDS011;59616;52.170;5.386;2023-04-06T05:08:40;20.95;;;7.68;;
70800;SDS011;59616;52.170;5.386;2023-04-06T05:11:08;19.48;;;7.70;;
70800;SDS011;59616;52.170;5.386;2023-04-06T05:13:40;18.77;;;7.20;;
70800;SDS011;59616;52.170;5.386;2023-04-06T05:16:13;18.05;;;7.72;;
70800;SDS011;59616;52.170;5.386;2023-04-06T05:18:40;19.70;;;7.63;;
70800;SDS011;59616;52.170;5.386;2023-04-06T05:21:08;21.67;;;7.75;;
70800;SDS011;59616;52.170;5.386;2023-04-06T05:23:46;20.15;;;7.40;;
70800;SDS011;59616;52.170;5.386;2023-04-06T05:26:13;18.05;;;7.18;;
70800;SDS011;59616;52.170;5.386;2023-04-06T05:28:40;19.80;;;7.72;;
70800;SDS011;59616;52.170;5.386;2023-04-06T05:31:10;17.83;;;7.53;;
70800;SDS011;59616;52.170;5.386;2023-04-06T05:33:45;20.10;;;7.78;;
70800;SDS011;59616;52.170;5.386;2023-04-06T05:36:14;28.58;;;8.10;;
70800;SDS011;59616;52.170;5.386;2023-04-06T05:38:45;15.98;;;7.45;;
70800;SDS011;59616;52.170;5.386;2023-04-06T05:41:22;19.25;;;7.43;;
70800;SDS011;59616;52.170;5.386;2023-04-06T05:43:50;21.48;;;8.18;;
70800;SDS011;59616;52.170;5.386;2023-04-06T05:46:17;20.65;;;8.27;;
70800;SDS011;59616;52.170;5.386;2023-04-06T05:48:45;21.23;;;8.13;;
70800;SDS011;59616;52.170;5.386;2023-04-06T05:51:13;21.60;;;8.52;;
70800;SDS011;59616;52.170;5.386;2023-04-06T05:53:45;23.00;;;8.73;;
70800;SDS011;59616;52.170;5.386;2023-04-06T05:56:13;22.80;;;8.98;;
70800;SDS011;59616;52.170;5.386;2023-04-06T05:58:40;22.35;;;8.57;;
70800;SDS011;59616;52.170;5.386;2023-04-06T06:01:10;21.13;;;8.70;;
70800;SDS011;59616;52.170;5.386;2023-04-06T06:03:41;19.45;;;8.55;;
70800;SDS011;59616;52.170;5.386;2023-04-06T06:06:08;22.25;;;9.05;;
70800;SDS011;59616;52.170;5.386;2023-04-06T06:08:47;21.60;;;8.98;;
70800;SDS011;59616;52.170;5.386;2023-04-06T06:11:16;23.83;;;9.40;;
70800;SDS011;59616;52.170;5.386;2023-04-06T06:13:43;23.90;;;9.85;;
70800;SDS011;59616;52.170;5.386;2023-04-06T06:16:10;20.45;;;8.60;;
70800;SDS011;59616;52.170;5.386;2023-04-06T06:18:43;24.40;;;9.32;;
70800;SDS011;59616;52.170;5.386;2023-04-06T06:21:10;22.45;;;9.00;;
70800;SDS011;59616;52.170;5.386;2023-04-06T06:23:39;21.52;;;9.07;;
70800;SDS011;59616;52.170;5.386;2023-04-06T06:26:06;24.10;;;9.10;;
70800;SDS011;59616;52.170;5.386;2023-04-06T06:28:34;23.52;;;8.88;;
70800;SDS011;59616;52.170;5.386;2023-04-06T06:31:02;23.33;;;9.43;;
70800;SDS011;59616;52.170;5.386;2023-04-06T06:33:29;21.65;;;9.10;;
70800;SDS011;59616;52.170;5.386;2023-04-06T06:35:57;22.27;;;9.35;;
70800;SDS011;59616;52.170;5.386;2023-04-06T06:38:25;24.08;;;9.82;;
70800;SDS011;59616;52.170;5.386;2023-04-06T06:40:53;22.02;;;8.65;;
70800;SDS011;59616;52.170;5.386;2023-04-06T06:43:23;21.15;;;8.85;;
70800;SDS011;59616;52.170;5.386;2023-04-06T06:46:00;24.42;;;9.27;;
70800;SDS011;59616;52.170;5.386;2023-04-06T06:48:27;23.25;;;9.65;;
70800;SDS011;59616;52.170;5.386;2023-04-06T06:50:55;22.00;;;8.65;;
70800;SDS011;59616;52.170;5.386;2023-04-06T06:53:22;19.80;;;8.45;;
70800;SDS011;59616;52.170;5.386;2023-04-06T06:55:50;26.85;;;9.55;;
70800;SDS011;59616;52.170;5.386;2023-04-06T06:58:18;21.27;;;8.95;;
70800;SDS011;59616;52.170;5.386;2023-04-06T07:00:48;22.83;;;8.65;;
70800;SDS011;59616;52.170;5.386;2023-04-06T07:03:16;22.70;;;9.52;;
70800;SDS011;59616;52.170;5.386;2023-04-06T07:05:46;23.15;;;9.48;;
70800;SDS011;59616;52.170;5.386;2023-04-06T07:08:20;23.55;;;8.98;;
70800;SDS011;59616;52.170;5.386;2023-04-06T07:10:47;22.20;;;9.35;;
70800;SDS011;59616;52.170;5.386;2023-04-06T07:13:15;24.15;;;10.25;;
70800;SDS011;59616;52.170;5.386;2023-04-06T07:15:50;22.83;;;9.73;;
70800;SDS011;59616;52.170;5.386;2023-04-06T07:18:18;26.60;;;9.98;;
70800;SDS011;59616;52.170;5.386;2023-04-06T07:20:45;24.13;;;10.10;;
70800;SDS011;59616;52.170;5.386;2023-04-06T07:23:14;25.60;;;10.73;;
70800;SDS011;59616;52.170;5.386;2023-04-06T07:25:41;27.15;;;10.77;;
70800;SDS011;59616;52.170;5.386;2023-04-06T07:28:08;23.48;;;10.45;;
70800;SDS011;59616;52.170;5.386;2023-04-06T07:30:36;26.45;;;10.77;;
70800;SDS011;59616;52.170;5.386;2023-04-06T07:33:04;22.23;;;10.18;;
70800;SDS011;59616;52.170;5.386;2023-04-06T07:35:34;23.00;;;10.02;;
70800;SDS011;59616;52.170;5.386;2023-04-06T07:38:03;26.48;;;9.90;;
70800;SDS011;59616;52.170;5.386;2023-04-06T07:40:31;24.67;;;11.20;;
70800;SDS011;59616;52.170;5.386;2023-04-06T07:42:59;27.63;;;10.68;;
70800;SDS011;59616;52.170;5.386;2023-04-06T07:45:28;23.77;;;10.65;;
70800;SDS011;59616;52.170;5.386;2023-04-06T07:47:56;26.63;;;11.00;;
70800;SDS011;59616;52.170;5.386;2023-04-06T07:50:25;22.95;;;9.52;;
70800;SDS011;59616;52.170;5.386;2023-04-06T07:52:53;29.23;;;10.50;;
70800;SDS011;59616;52.170;5.386;2023-04-06T07:55:21;23.75;;;10.20;;
70800;SDS011;59616;52.170;5.386;2023-04-06T07:57:48;24.15;;;10.90;;
70800;SDS011;59616;52.170;5.386;2023-04-06T08:00:15;26.60;;;10.60;;
70800;SDS011;59616;52.170;5.386;2023-04-06T08:02:43;25.95;;;11.65;;
70800;SDS011;59616;52.170;5.386;2023-04-06T08:05:10;27.38;;;11.18;;
70800;SDS011;59616;52.170;5.386;2023-04-06T08:07:37;25.27;;;11.15;;
70800;SDS011;59616;52.170;5.386;2023-04-06T08:10:05;27.08;;;10.32;;
70800;SDS011;59616;52.170;5.386;2023-04-06T08:12:32;28.05;;;11.32;;
70800;SDS011;59616;52.170;5.386;2023-04-06T08:15:00;26.45;;;11.80;;
70800;SDS011;59616;52.170;5.386;2023-04-06T08:17:28;26.05;;;11.23;;
70800;SDS011;59616;52.170;5.386;2023-04-06T08:19:57;26.30;;;10.70;;
70800;SDS011;59616;52.170;5.386;2023-04-06T08:22:24;26.52;;;10.75;;
70800;SDS011;59616;52.170;5.386;2023-04-06T08:24:52;24.42;;;11.85;;
70800;SDS011;59616;52.170;5.386;2023-04-06T08:27:19;28.77;;;11.45;;
70800;SDS011;59616;52.170;5.386;2023-04-06T08:29:47;24.55;;;11.13;;
70800;SDS011;59616;52.170;5.386;2023-04-06T08:32:14;26.48;;;11.02;;
70800;SDS011;59616;52.170;5.386;2023-04-06T08:34:41;28.55;;;11.73;;
70800;SDS011;59616;52.170;5.386;2023-04-06T08:37:10;26.27;;;12.20;;
70800;SDS011;59616;52.170;5.386;2023-04-06T08:39:38;25.17;;;10.90;;
70800;SDS011;59616;52.170;5.386;2023-04-06T08:42:10;26.67;;;11.73;;
70800;SDS011;59616;52.170;5.386;2023-04-06T08:44:37;28.00;;;11.60;;
70800;SDS011;59616;52.170;5.386;2023-04-06T08:47:04;25.02;;;11.10;;
70800;SDS011;59616;52.170;5.386;2023-04-06T08:49:31;29.55;;;12.30;;
70800;SDS011;59616;52.170;5.386;2023-04-06T08:51:59;27.25;;;11.57;;
70800;SDS011;59616;52.170;5.386;2023-04-06T08:54:26;29.83;;;12.52;;
70800;SDS011;59616;52.170;5.386;2023-04-06T08:56:53;26.48;;;11.80;;
70800;SDS011;59616;52.170;5.386;2023-04-06T08:59:23;31.08;;;12.35;;
70800;SDS011;59616;52.170;5.386;2023-04-06T09:01:50;29.67;;;12.48;;
70800;SDS011;59616;52.170;5.386;2023-04-06T09:04:18;29.70;;;12.00;;
70800;SDS011;59616;52.170;5.386;2023-04-06T09:06:46;27.70;;;12.15;;
70800;SDS011;59616;52.170;5.386;2023-04-06T09:09:13;30.23;;;12.05;;
70800;SDS011;59616;52.170;5.386;2023-04-06T09:11:48;29.80;;;12.43;;
70800;SDS011;59616;52.170;5.386;2023-04-06T09:14:16;28.83;;;12.65;;
70800;SDS011;59616;52.170;5.386;2023-04-06T09:16:44;26.35;;;11.70;;
70800;SDS011;59616;52.170;5.386;2023-04-06T09:19:12;30.35;;;12.73;;
70800;SDS011;59616;52.170;5.386;2023-04-06T09:21:39;30.70;;;12.20;;
70800;SDS011;59616;52.170;5.386;2023-04-06T09:24:08;27.08;;;13.02;;
70800;SDS011;59616;52.170;5.386;2023-04-06T09:26:46;29.85;;;12.90;;
70800;SDS011;59616;52.170;5.386;2023-04-06T09:29:23;27.42;;;12.75;;
70800;SDS011;59616;52.170;5.386;2023-04-06T09:32:01;29.80;;;12.43;;
70800;SDS011;59616;52.170;5.386;2023-04-06T09:34:29;26.98;;;12.60;;
70800;SDS011;59616;52.170;5.386;2023-04-06T09:36:57;32.95;;;12.02;;
70800;SDS011;59616;52.170;5.386;2023-04-06T09:39:25;28.15;;;12.57;;
70800;SDS011;59616;52.170;5.386;2023-04-06T09:41:53;25.88;;;11.80;;
70800;SDS011;59616;52.170;5.386;2023-04-06T09:44:22;26.02;;;12.15;;
70800;SDS011;59616;52.170;5.386;2023-04-06T09:46:52;28.73;;;13.38;;
70800;SDS011;59616;52.170;5.386;2023-04-06T09:49:30;25.42;;;11.40;;
70800;SDS011;59616;52.170;5.386;2023-04-06T09:52:02;32.35;;;13.00;;
70800;SDS011;59616;52.170;5.386;2023-04-06T09:54:31;30.13;;;13.07;;
70800;SDS011;59616;52.170;5.386;2023-04-06T09:59:30;29.80;;;14.18;;
70800;SDS011;59616;52.170;5.386;2023-04-06T10:01:59;29.17;;;12.40;;
70800;SDS011;59616;52.170;5.386;2023-04-06T10:04:33;33.90;;;13.70;;
70800;SDS011;59616;52.170;5.386;2023-04-06T10:07:01;31.48;;;13.55;;
70800;SDS011;59616;52.170;5.386;2023-04-06T10:09:29;32.25;;;13.70;;
70800;SDS011;59616;52.170;5.386;2023-04-06T10:12:03;31.88;;;12.40;;
70800;SDS011;59616;52.170;5.386;2023-04-06T10:14:34;33.65;;;13.50;;
70800;SDS011;59616;52.170;5.386;2023-04-06T10:17:04;34.47;;;12.60;;
70800;SDS011;59616;52.170;5.386;2023-04-06T10:19:34;28.02;;;11.63;;
70800;SDS011;59616;52.170;5.386;2023-04-06T10:22:03;29.02;;;11.45;;
70800;SDS011;59616;52.170;5.386;2023-04-06T10:24:32;24.05;;;9.68;;
70800;SDS011;59616;52.170;5.386;2023-04-06T10:27:02;27.27;;;10.32;;
70800;SDS011;59616;52.170;5.386;2023-04-06T10:29:41;22.13;;;9.18;;
70800;SDS011;59616;52.170;5.386;2023-04-06T10:34:36;22.17;;;8.98;;
70800;SDS011;59616;52.170;5.386;2023-04-06T10:37:13;20.63;;;7.80;;
70800;SDS011;59616;52.170;5.386;2023-04-06T10:39:53;23.00;;;8.27;;
70800;SDS011;59616;52.170;5.386;2023-04-06T10:42:24;22.80;;;8.43;;
70800;SDS011;59616;52.170;5.386;2023-04-06T10:44:52;21.30;;;8.05;;
70800;SDS011;59616;52.170;5.386;2023-04-06T10:47:19;18.65;;;8.15;;
70800;SDS011;59616;52.170;5.386;2023-04-06T10:49:46;22.58;;;7.72;;
70800;SDS011;59616;52.170;5.386;2023-04-06T10:52:14;18.98;;;7.05;;
70800;SDS011;59616;52.170;5.386;2023-04-06T10:54:42;16.77;;;7.15;;
70800;SDS011;59616;52.170;5.386;2023-04-06T10:57:15;15.75;;;7.05;;
70800;SDS011;59616;52.170;5.386;2023-04-06T10:59:43;15.10;;;5.80;;
70800;SDS011;59616;52.170;5.386;2023-04-06T11:02:18;15.30;;;5.50;;
70800;SDS011;59616;52.170;5.386;2023-04-06T11:04:56;15.15;;;5.65;;
70800;SDS011;59616;52.170;5.386;2023-04-06T11:07:27;12.88;;;5.10;;
70800;SDS011;59616;52.170;5.386;2023-04-06T11:09:56;11.15;;;4.35;;
70800;SDS011;59616;52.170;5.386;2023-04-06T11:12:41;10.90;;;4.30;;
70800;SDS011;59616;52.170;5.386;2023-04-06T11:15:08;11.15;;;3.50;;
70800;SDS011;59616;52.170;5.386;2023-04-06T11:17:36;10.25;;;3.92;;
70800;SDS011;59616;52.170;5.386;2023-04-06T11:20:04;10.85;;;3.78;;
70800;SDS011;59616;52.170;5.386;2023-04-06T11:22:31;10.80;;;3.90;;
70800;SDS011;59616;52.170;5.386;2023-04-06T11:25:05;10.18;;;3.83;;
70800;SDS011;59616;52.170;5.386;2023-04-06T11:27:33;11.00;;;3.63;;
70800;SDS011;59616;52.170;5.386;2023-04-06T11:30:01;9.05;;;3.42;;
70800;SDS011;59616;52.170;5.386;2023-04-06T11:32:38;10.10;;;3.60;;
70800;SDS011;59616;52.170;5.386;2023-04-06T11:35:10;8.93;;;3.63;;
70800;SDS011;59616;52.170;5.386;2023-04-06T11:37:38;9.20;;;3.35;;
70800;SDS011;59616;52.170;5.386;2023-04-06T11:40:07;12.63;;;3.95;;
70800;SDS011;59616;52.170;5.386;2023-04-06T11:42:35;10.40;;;3.72;;
70800;SDS011;59616;52.170;5.386;2023-04-06T11:45:02;10.90;;;3.70;;
70800;SDS011;59616;52.170;5.386;2023-04-06T11:47:33;10.07;;;3.70;;
70800;SDS011;59616;52.170;5.386;2023-04-06T11:50:22;13.00;;;3.80;;
70800;SDS011;59616;52.170;5.386;2023-04-06T11:52:57;12.73;;;4.20;;
70800;SDS011;59616;52.170;5.386;2023-04-06T11:55:25;11.75;;;4.40;;
70800;SDS011;59616;52.170;5.386;2023-04-06T11:57:54;11.00;;;3.78;;
70800;SDS011;59616;52.170;5.386;2023-04-06T12:00:22;10.02;;;3.70;;
70800;SDS011;59616;52.170;5.386;2023-04-06T12:02:49;10.32;;;3.97;;
70800;SDS011;59616;52.170;5.386;2023-04-06T12:05:16;26.80;;;5.05;;
70800;SDS011;59616;52.170;5.386;2023-04-06T12:07:44;11.68;;;4.45;;
70800;SDS011;59616;52.170;5.386;2023-04-06T12:10:12;10.85;;;4.25;;
70800;SDS011;59616;52.170;5.386;2023-04-06T12:12:39;12.90;;;4.72;;
70800;SDS011;59616;52.170;5.386;2023-04-06T12:15:06;11.02;;;4.63;;
70800;SDS011;59616;52.170;5.386;2023-04-06T12:17:33;10.98;;;4.68;;
70800;SDS011;59616;52.170;5.386;2023-04-06T12:20:01;14.98;;;5.15;;
70800;SDS011;59616;52.170;5.386;2023-04-06T12:22:43;13.15;;;4.97;;
70800;SDS011;59616;52.170;5.386;2023-04-06T12:25:10;18.05;;;5.95;;
70800;SDS011;59616;52.170;5.386;2023-04-06T12:27:38;11.90;;;5.40;;
70800;SDS011;59616;52.170;5.386;2023-04-06T12:30:05;14.20;;;5.45;;
70800;SDS011;59616;52.170;5.386;2023-04-06T12:32:32;14.25;;;5.13;;
70800;SDS011;59616;52.170;5.386;2023-04-06T12:35:00;14.00;;;5.28;;
70800;SDS011;59616;52.170;5.386;2023-04-06T12:37:27;13.30;;;5.05;;
70800;SDS011;59616;52.170;5.386;2023-04-06T12:39:54;12.15;;;4.80;;
70800;SDS011;59616;52.170;5.386;2023-04-06T12:42:21;15.73;;;5.78;;
70800;SDS011;59616;52.170;5.386;2023-04-06T12:44:48;15.65;;;6.05;;
70800;SDS011;59616;52.170;5.386;2023-04-06T12:47:16;12.95;;;5.75;;
70800;SDS011;59616;52.170;5.386;2023-04-06T12:49:44;15.30;;;6.13;;
70800;SDS011;59616;52.170;5.386;2023-04-06T12:52:11;16.10;;;5.95;;
70800;SDS011;59616;52.170;5.386;2023-04-06T12:54:38;14.98;;;6.28;;
70800;SDS011;59616;52.170;5.386;2023-04-06T12:57:05;15.48;;;6.10;;
70800;SDS011;59616;52.170;5.386;2023-04-06T12:59:32;12.30;;;5.30;;
70800;SDS011;59616;52.170;5.386;2023-04-06T13:02:01;14.10;;;6.32;;
70800;SDS011;59616;52.170;5.386;2023-04-06T13:04:30;15.07;;;5.85;;
70800;SDS011;59616;52.170;5.386;2023-04-06T13:06:57;11.18;;;5.30;;
70800;SDS011;59616;52.170;5.386;2023-04-06T13:09:24;13.30;;;5.47;;
70800;SDS011;59616;52.170;5.386;2023-04-06T13:11:52;13.00;;;5.18;;
70800;SDS011;59616;52.170;5.386;2023-04-06T13:14:19;16.85;;;6.13;;
70800;SDS011;59616;52.170;5.386;2023-04-06T13:16:47;14.95;;;5.95;;
70800;SDS011;59616;52.170;5.386;2023-04-06T13:19:14;13.88;;;5.97;;
70800;SDS011;59616;52.170;5.386;2023-04-06T13:21:42;12.63;;;5.68;;
70800;SDS011;59616;52.170;5.386;2023-04-06T13:24:10;13.57;;;5.65;;
70800;SDS011;59616;52.170;5.386;2023-04-06T13:26:37;15.68;;;6.38;;
70800;SDS011;59616;52.170;5.386;2023-04-06T13:29:04;16.38;;;6.22;;
70800;SDS011;59616;52.170;5.386;2023-04-06T13:31:31;16.52;;;6.30;;
70800;SDS011;59616;52.170;5.386;2023-04-06T13:33:59;14.70;;;6.10;;
70800;SDS011;59616;52.170;5.386;2023-04-06T13:36:26;13.05;;;5.72;;
70800;SDS011;59616;52.170;5.386;2023-04-06T13:38:53;16.13;;;6.70;;
70800;SDS011;59616;52.170;5.386;2023-04-06T13:41:22;13.77;;;5.85;;
70800;SDS011;59616;52.170;5.386;2023-04-06T13:43:49;15.98;;;6.22;;
70800;SDS011;59616;52.170;5.386;2023-04-06T13:46:16;16.60;;;6.38;;
70800;SDS011;59616;52.170;5.386;2023-04-06T13:48:44;17.05;;;6.53;;
70800;SDS011;59616;52.170;5.386;2023-04-06T13:51:13;13.65;;;5.85;;
70800;SDS011;59616;52.170;5.386;2023-04-06T13:53:41;14.52;;;5.82;;
70800;SDS011;59616;52.170;5.386;2023-04-06T13:56:08;16.88;;;6.63;;
70800;SDS011;59616;52.170;5.386;2023-04-06T13:58:35;16.27;;;6.50;;
70800;SDS011;59616;52.170;5.386;2023-04-06T14:01:06;15.68;;;6.00;;
70800;SDS011;59616;52.170;5.386;2023-04-06T14:03:36;14.45;;;6.18;;
70800;SDS011;59616;52.170;5.386;2023-04-06T14:06:09;15.05;;;6.28;;
70800;SDS011;59616;52.170;5.386;2023-04-06T14:08:55;14.32;;;6.00;;
70800;SDS011;59616;52.170;5.386;2023-04-06T14:11:23;17.92;;;5.97;;
70800;SDS011;59616;52.170;5.386;2023-04-06T14:13:50;16.30;;;6.10;;
70800;SDS011;59616;52.170;5.386;2023-04-06T14:16:17;14.95;;;6.05;;
70800;SDS011;59616;52.170;5.386;2023-04-06T14:18:46;16.48;;;6.35;;
70800;SDS011;59616;52.170;5.386;2023-04-06T14:21:13;14.82;;;5.63;;
70800;SDS011;59616;52.170;5.386;2023-04-06T14:23:40;16.40;;;6.25;;
70800;SDS011;59616;52.170;5.386;2023-04-06T14:26:08;15.35;;;6.47;;
70800;SDS011;59616;52.170;5.386;2023-04-06T14:28:35;15.55;;;6.15;;
70800;SDS011;59616;52.170;5.386;2023-04-06T14:31:09;15.98;;;6.30;;
70800;SDS011;59616;52.170;5.386;2023-04-06T14:36:03;16.38;;;6.10;;
70800;SDS011;59616;52.170;5.386;2023-04-06T14:38:31;16.52;;;6.55;;
70800;SDS011;59616;52.170;5.386;2023-04-06T14:40:58;14.88;;;5.85;;
70800;SDS011;59616;52.170;5.386;2023-04-06T14:43:26;14.80;;;5.88;;
70800;SDS011;59616;52.170;5.386;2023-04-06T14:45:53;15.70;;;6.53;;
70800;SDS011;59616;52.170;5.386;2023-04-06T14:48:21;16.30;;;5.93;;
70800;SDS011;59616;52.170;5.386;2023-04-06T14:50:52;15.27;;;6.28;;
70800;SDS011;59616;52.170;5.386;2023-04-06T14:53:19;14.68;;;6.20;;
70800;SDS011;59616;52.170;5.386;2023-04-06T14:55:47;14.40;;;6.45;;
70800;SDS011;59616;52.170;5.386;2023-04-06T14:58:16;15.30;;;6.28;;